createdAt,value
2017-08-07T00:00:40.416Z,17.3
2017-08-07T00:01:21.004Z,17.26
2017-08-07T00:02:01.593Z,17.3
2017-08-07T00:02:42.207Z,17.31
2017-08-07T00:03:22.785Z,17.31
2017-08-07T00:04:03.374Z,17.24
2017-08-07T00:04:43.942Z,17.22
2017-08-07T00:05:24.514Z,17.33
2017-08-07T00:06:05.077Z,17.29
2017-08-07T00:06:45.659Z,17.29
2017-08-07T00:07:26.231Z,17.2
2017-08-07T00:08:06.800Z,17.22
2017-08-07T00:08:47.393Z,17.23
2017-08-07T00:09:27.964Z,17.22
2017-08-07T00:10:08.516Z,17.2
2017-08-07T00:10:49.092Z,17.24
2017-08-07T00:11:29.671Z,17.2
2017-08-07T00:12:10.265Z,17.22
2017-08-07T00:12:50.832Z,17.26
2017-08-07T00:13:31.425Z,17.26
2017-08-07T00:14:12.002Z,17.2
2017-08-07T00:14:52.568Z,17.14
2017-08-07T00:15:33.160Z,17.15
2017-08-07T00:16:13.738Z,17.16
2017-08-07T00:16:54.304Z,17.23
2017-08-07T00:17:34.867Z,17.26
2017-08-07T00:18:15.433Z,17.16
2017-08-07T00:18:56.024Z,17.22
2017-08-07T00:19:36.606Z,17.27
2017-08-07T00:20:17.180Z,17.3
2017-08-07T00:20:57.747Z,17.26
2017-08-07T00:21:38.322Z,17.2
2017-08-07T00:22:18.885Z,17.22
2017-08-07T00:22:59.504Z,17.22
2017-08-07T00:23:40.079Z,17.22
2017-08-07T00:24:20.679Z,17.23
2017-08-07T00:25:01.265Z,17.12
2017-08-07T00:25:41.829Z,17.19
2017-08-07T00:26:22.393Z,17.12
2017-08-07T00:27:02.972Z,17.19
2017-08-07T00:27:43.563Z,17.11
2017-08-07T00:28:30.663Z,17.15
2017-08-07T00:29:11.249Z,17.14
2017-08-07T00:29:51.842Z,17.22
2017-08-07T00:30:32.437Z,17.15
2017-08-07T00:31:13.027Z,17.14
2017-08-07T00:31:53.594Z,17.15
2017-08-07T00:32:34.172Z,17.22
2017-08-07T00:33:14.770Z,17.14
2017-08-07T00:33:55.337Z,17.15
2017-08-07T00:34:35.933Z,17.14
2017-08-07T00:35:16.567Z,17.12
2017-08-07T00:35:57.142Z,17.19
2017-08-07T00:36:37.710Z,17.11
2017-08-07T00:37:18.279Z,17.19
2017-08-07T00:37:58.854Z,17.2
2017-08-07T00:38:39.426Z,17.15
2017-08-07T00:39:20.012Z,17.12
2017-08-07T00:40:00.594Z,17.14
2017-08-07T00:40:41.175Z,17.11
2017-08-07T00:41:21.752Z,17.12
2017-08-07T00:42:02.346Z,17.14
2017-08-07T00:42:42.888Z,17.14
2017-08-07T00:43:23.459Z,17.14
2017-08-07T00:44:04.038Z,17.04
2017-08-07T00:44:44.670Z,17.15
2017-08-07T00:45:25.249Z,17.12
2017-08-07T00:46:05.823Z,17.05
2017-08-07T00:46:46.426Z,17.09
2017-08-07T00:47:27.010Z,17.06
2017-08-07T00:48:07.589Z,16.99
2017-08-07T00:48:48.161Z,17.04
2017-08-07T00:49:28.736Z,16.99
2017-08-07T00:50:09.302Z,17.02
2017-08-07T00:50:49.885Z,17.01
2017-08-07T00:51:30.455Z,17.01
2017-08-07T00:52:11.060Z,16.99
2017-08-07T00:52:51.629Z,16.99
2017-08-07T00:53:32.196Z,17.01
2017-08-07T00:54:12.770Z,16.96
2017-08-07T00:54:53.388Z,16.96
2017-08-07T00:55:33.975Z,16.93
2017-08-07T00:56:14.548Z,16.93
2017-08-07T00:56:55.136Z,16.9
2017-08-07T00:57:35.703Z,16.93
2017-08-07T00:58:16.288Z,16.9
2017-08-07T00:58:56.863Z,16.96
2017-08-07T00:59:37.431Z,16.9
2017-08-07T01:00:18.017Z,16.9
2017-08-07T01:00:58.596Z,16.91
2017-08-07T01:01:39.160Z,16.93
2017-08-07T01:02:19.727Z,16.84
2017-08-07T01:03:00.310Z,16.94
2017-08-07T01:03:40.899Z,16.91
2017-08-07T01:04:21.475Z,16.93
2017-08-07T01:05:02.047Z,16.87
2017-08-07T01:05:42.616Z,16.86
2017-08-07T01:06:23.198Z,16.96
2017-08-07T01:07:03.757Z,16.93
2017-08-07T01:07:44.333Z,16.86
2017-08-07T01:08:24.941Z,16.96
2017-08-07T01:09:05.488Z,16.91
2017-08-07T01:09:46.081Z,16.91
2017-08-07T01:10:26.633Z,16.93
2017-08-07T01:11:07.265Z,16.81
2017-08-07T01:11:47.840Z,16.84
2017-08-07T01:12:28.427Z,16.94
2017-08-07T01:13:09.084Z,16.79
2017-08-07T01:13:49.639Z,16.78
2017-08-07T01:14:30.256Z,16.78
2017-08-07T01:15:10.829Z,16.86
2017-08-07T01:15:51.474Z,16.83
2017-08-07T01:16:32.080Z,16.83
2017-08-07T01:17:12.672Z,16.83
2017-08-07T01:17:53.244Z,16.89
2017-08-07T01:18:33.865Z,16.87
2017-08-07T01:19:14.470Z,16.81
2017-08-07T01:19:55.078Z,16.79
2017-08-07T01:20:35.637Z,16.75
2017-08-07T01:21:16.226Z,16.74
2017-08-07T01:21:56.819Z,16.76
2017-08-07T01:22:37.384Z,16.72
2017-08-07T01:23:17.951Z,16.66
2017-08-07T01:23:58.553Z,16.72
2017-08-07T01:24:39.107Z,16.69
2017-08-07T01:25:19.706Z,16.74
2017-08-07T01:26:00.350Z,16.72
2017-08-07T01:26:40.936Z,16.66
2017-08-07T01:27:21.530Z,16.65
2017-08-07T01:28:02.110Z,16.79
2017-08-07T01:28:42.675Z,16.78
2017-08-07T01:29:23.242Z,16.68
2017-08-07T01:30:03.807Z,16.76
2017-08-07T01:30:44.404Z,16.69
2017-08-07T01:31:24.970Z,16.68
2017-08-07T01:32:05.556Z,16.74
2017-08-07T01:32:46.125Z,16.72
2017-08-07T01:33:26.708Z,16.69
2017-08-07T01:34:07.267Z,16.68
2017-08-07T01:34:47.861Z,16.69
2017-08-07T01:35:28.437Z,16.71
2017-08-07T01:36:09.024Z,16.71
2017-08-07T01:36:49.615Z,16.75
2017-08-07T01:37:30.195Z,16.72
2017-08-07T01:38:10.827Z,16.75
2017-08-07T01:38:51.376Z,16.74
2017-08-07T01:39:31.977Z,16.61
2017-08-07T01:40:12.571Z,16.74
2017-08-07T01:40:53.160Z,16.64
2017-08-07T01:41:33.783Z,16.58
2017-08-07T01:42:14.369Z,16.68
2017-08-07T01:42:54.938Z,16.71
2017-08-07T01:43:35.566Z,16.68
2017-08-07T01:44:16.191Z,16.65
2017-08-07T01:44:56.791Z,16.61
2017-08-07T01:45:37.402Z,16.68
2017-08-07T01:46:17.953Z,16.65
2017-08-07T01:46:58.590Z,16.61
2017-08-07T01:47:39.175Z,16.64
2017-08-07T01:48:19.758Z,16.61
2017-08-07T01:49:00.342Z,16.61
2017-08-07T01:49:40.916Z,16.64
2017-08-07T01:50:21.555Z,16.68
2017-08-07T01:51:02.124Z,16.65
2017-08-07T01:51:42.764Z,16.58
2017-08-07T01:52:23.351Z,16.64
2017-08-07T01:53:03.924Z,16.57
2017-08-07T01:53:44.489Z,16.57
2017-08-07T01:54:25.074Z,16.61
2017-08-07T01:55:05.710Z,16.6
2017-08-07T01:55:46.261Z,16.57
2017-08-07T01:56:26.839Z,16.56
2017-08-07T01:57:07.446Z,16.54
2017-08-07T01:57:48.025Z,16.51
2017-08-07T01:58:28.620Z,16.51
2017-08-07T01:59:09.202Z,16.6
2017-08-07T01:59:49.762Z,16.56
2017-08-07T02:00:30.362Z,16.57
2017-08-07T02:01:10.952Z,16.56
2017-08-07T02:01:51.522Z,16.54
2017-08-07T02:02:32.096Z,16.51
2017-08-07T02:03:12.719Z,16.49
2017-08-07T02:03:53.430Z,16.49
2017-08-07T02:04:34.057Z,16.49
2017-08-07T02:05:14.625Z,16.47
2017-08-07T02:05:55.214Z,16.47
2017-08-07T02:06:35.782Z,16.5
2017-08-07T02:07:16.390Z,16.5
2017-08-07T02:07:56.990Z,16.5
2017-08-07T02:08:37.605Z,16.5
2017-08-07T02:09:18.183Z,16.43
2017-08-07T02:09:58.764Z,16.38
2017-08-07T02:10:39.342Z,16.36
2017-08-07T02:11:19.915Z,16.5
2017-08-07T02:12:00.488Z,16.43
2017-08-07T02:12:41.073Z,16.43
2017-08-07T02:13:21.636Z,16.43
2017-08-07T02:14:02.252Z,16.43
2017-08-07T02:14:42.881Z,16.51
2017-08-07T02:15:23.472Z,16.41
2017-08-07T02:16:04.125Z,16.43
2017-08-07T02:16:44.678Z,16.46
2017-08-07T02:17:25.270Z,16.47
2017-08-07T02:18:05.823Z,16.51
2017-08-07T02:18:46.409Z,16.47
2017-08-07T02:19:26.986Z,16.47
2017-08-07T02:20:07.569Z,16.47
2017-08-07T02:20:48.143Z,16.43
2017-08-07T02:21:28.716Z,16.43
2017-08-07T02:22:09.294Z,16.49
2017-08-07T02:22:49.898Z,16.47
2017-08-07T02:23:30.458Z,16.46
2017-08-07T02:24:11.025Z,16.43
2017-08-07T02:24:51.629Z,16.41
2017-08-07T02:25:32.215Z,16.38
2017-08-07T02:26:12.855Z,16.42
2017-08-07T02:26:53.409Z,16.46
2017-08-07T02:27:33.979Z,16.43
2017-08-07T02:28:14.538Z,16.39
2017-08-07T02:28:55.117Z,16.31
2017-08-07T02:29:35.687Z,16.35
2017-08-07T02:30:16.267Z,16.35
2017-08-07T02:30:56.851Z,16.41
2017-08-07T02:31:37.432Z,16.35
2017-08-07T02:32:18.016Z,16.35
2017-08-07T02:32:58.602Z,16.31
2017-08-07T02:33:39.193Z,16.39
2017-08-07T02:34:19.772Z,16.31
2017-08-07T02:35:00.390Z,16.29
2017-08-07T02:35:40.981Z,16.29
2017-08-07T02:36:21.567Z,16.33
2017-08-07T02:37:02.159Z,16.23
2017-08-07T02:37:42.749Z,16.28
2017-08-07T02:38:23.317Z,16.23
2017-08-07T02:39:03.901Z,16.24
2017-08-07T02:39:44.475Z,16.21
2017-08-07T02:40:25.055Z,16.2
2017-08-07T02:41:05.637Z,16.23
2017-08-07T02:41:46.232Z,16.2
2017-08-07T02:42:26.804Z,16.17
2017-08-07T02:43:07.374Z,16.16
2017-08-07T02:43:47.975Z,16.2
2017-08-07T02:44:28.538Z,16.21
2017-08-07T02:45:09.111Z,16.17
2017-08-07T02:45:49.685Z,16.16
2017-08-07T02:46:30.267Z,16.15
2017-08-07T02:47:10.853Z,16.13
2017-08-07T02:47:51.496Z,16.16
2017-08-07T02:48:32.058Z,16.08
2017-08-07T02:49:12.648Z,16.05
2017-08-07T02:49:53.223Z,16.13
2017-08-07T02:50:33.798Z,16.15
2017-08-07T02:51:14.369Z,16.12
2017-08-07T02:51:54.934Z,16.13
2017-08-07T02:52:35.555Z,16.1
2017-08-07T02:53:16.116Z,16.12
2017-08-07T02:53:56.682Z,16.17
2017-08-07T02:54:37.248Z,16.17
2017-08-07T02:55:17.831Z,16.21
2017-08-07T02:55:58.426Z,16.2
2017-08-07T02:56:38.994Z,16.23
2017-08-07T02:57:19.564Z,16.17
2017-08-07T02:58:00.144Z,16.24
2017-08-07T02:58:40.760Z,16.26
2017-08-07T02:59:21.352Z,16.24
2017-08-07T03:00:01.929Z,16.2
2017-08-07T03:00:42.506Z,16.24
2017-08-07T03:01:23.083Z,16.21
2017-08-07T03:02:03.691Z,16.17
2017-08-07T03:02:44.273Z,16.23
2017-08-07T03:03:24.853Z,16.24
2017-08-07T03:04:05.435Z,16.2
2017-08-07T03:04:46.014Z,16.21
2017-08-07T03:05:26.632Z,16.23
2017-08-07T03:06:07.203Z,16.16
2017-08-07T03:06:47.768Z,16.17
2017-08-07T03:07:28.355Z,16.23
2017-08-07T03:08:08.930Z,16.2
2017-08-07T03:08:49.517Z,16.28
2017-08-07T03:09:30.089Z,16.12
2017-08-07T03:10:10.662Z,16.08
2017-08-07T03:10:51.232Z,16.13
2017-08-07T03:11:31.804Z,16.02
2017-08-07T03:12:12.396Z,16.04
2017-08-07T03:12:52.996Z,16.1
2017-08-07T03:13:33.582Z,16.1
2017-08-07T03:14:14.182Z,16.05
2017-08-07T03:14:54.739Z,16.05
2017-08-07T03:15:35.336Z,15.98
2017-08-07T03:16:15.897Z,15.97
2017-08-07T03:16:56.487Z,16.04
2017-08-07T03:17:37.065Z,16
2017-08-07T03:18:17.674Z,16.01
2017-08-07T03:18:58.268Z,15.95
2017-08-07T03:19:38.859Z,15.97
2017-08-07T03:20:19.444Z,15.92
2017-08-07T03:21:00.029Z,15.98
2017-08-07T03:21:40.592Z,16
2017-08-07T03:22:21.187Z,15.97
2017-08-07T03:23:01.757Z,15.97
2017-08-07T03:23:42.367Z,16.02
2017-08-07T03:24:22.940Z,16
2017-08-07T03:25:03.512Z,15.95
2017-08-07T03:25:44.097Z,15.95
2017-08-07T03:26:24.671Z,15.98
2017-08-07T03:27:05.261Z,15.94
2017-08-07T03:27:45.844Z,15.98
2017-08-07T03:28:26.415Z,15.88
2017-08-07T03:29:07.000Z,15.84
2017-08-07T03:29:47.565Z,15.82
2017-08-07T03:30:28.148Z,15.95
2017-08-07T03:31:08.745Z,15.97
2017-08-07T03:31:49.436Z,15.97
2017-08-07T03:32:30.000Z,15.98
2017-08-07T03:33:10.572Z,15.92
2017-08-07T03:33:51.153Z,15.92
2017-08-07T03:34:31.727Z,15.98
2017-08-07T03:35:12.300Z,15.83
2017-08-07T03:35:52.873Z,15.88
2017-08-07T03:36:33.448Z,15.86
2017-08-07T03:37:14.025Z,15.86
2017-08-07T03:37:54.610Z,15.9
2017-08-07T03:38:35.188Z,15.86
2017-08-07T03:39:15.771Z,15.84
2017-08-07T03:39:56.343Z,15.88
2017-08-07T03:40:36.919Z,15.88
2017-08-07T03:41:17.495Z,15.84
2017-08-07T03:41:58.064Z,15.9
2017-08-07T03:42:38.639Z,15.86
2017-08-07T03:43:19.249Z,15.91
2017-08-07T03:43:59.818Z,15.94
2017-08-07T03:44:40.396Z,15.79
2017-08-07T03:45:21.005Z,15.84
2017-08-07T03:46:01.597Z,15.91
2017-08-07T03:46:42.156Z,15.95
2017-08-07T03:47:22.740Z,15.91
2017-08-07T03:48:03.304Z,15.83
2017-08-07T03:48:43.890Z,15.82
2017-08-07T03:49:24.449Z,15.84
2017-08-07T03:50:05.015Z,15.97
2017-08-07T03:50:45.598Z,15.9
2017-08-07T03:51:26.156Z,15.92
2017-08-07T03:52:06.724Z,15.88
2017-08-07T03:52:47.314Z,15.86
2017-08-07T03:53:27.874Z,15.9
2017-08-07T03:54:08.448Z,15.86
2017-08-07T03:54:49.021Z,15.95
2017-08-07T03:55:29.615Z,15.83
2017-08-07T03:56:10.224Z,15.97
2017-08-07T03:56:50.788Z,15.95
2017-08-07T03:57:31.365Z,15.88
2017-08-07T03:58:11.935Z,15.92
2017-08-07T03:58:52.500Z,15.91
2017-08-07T03:59:33.091Z,15.88
2017-08-07T04:00:13.657Z,15.95
2017-08-07T04:00:54.245Z,15.9
2017-08-07T04:01:34.844Z,15.92
2017-08-07T04:02:15.463Z,15.9
2017-08-07T04:02:56.091Z,15.91
2017-08-07T04:03:36.675Z,15.94
2017-08-07T04:04:17.287Z,15.88
2017-08-07T04:04:57.876Z,15.91
2017-08-07T04:05:38.453Z,15.95
2017-08-07T04:06:19.080Z,15.9
2017-08-07T04:06:59.694Z,15.95
2017-08-07T04:07:40.293Z,15.95
2017-08-07T04:08:20.887Z,15.92
2017-08-07T04:09:01.495Z,15.97
2017-08-07T04:09:42.132Z,15.91
2017-08-07T04:10:22.778Z,16
2017-08-07T04:11:03.438Z,15.9
2017-08-07T04:11:44.053Z,15.98
2017-08-07T04:12:24.644Z,16
2017-08-07T04:13:05.333Z,15.9
2017-08-07T04:13:45.937Z,15.92
2017-08-07T04:14:26.505Z,16.01
2017-08-07T04:15:07.078Z,15.98
2017-08-07T04:15:47.668Z,15.98
2017-08-07T04:16:28.236Z,15.91
2017-08-07T04:17:08.861Z,16.01
2017-08-07T04:17:49.462Z,15.92
2017-08-07T04:18:30.078Z,15.94
2017-08-07T04:19:10.656Z,15.98
2017-08-07T04:19:51.286Z,15.84
2017-08-07T04:20:31.872Z,15.94
2017-08-07T04:21:12.428Z,15.94
2017-08-07T04:21:53.003Z,15.95
2017-08-07T04:22:33.576Z,15.94
2017-08-07T04:23:14.138Z,15.98
2017-08-07T04:23:54.705Z,15.92
2017-08-07T04:24:35.340Z,15.98
2017-08-07T04:25:15.904Z,15.98
2017-08-07T04:25:56.464Z,16.01
2017-08-07T04:26:37.049Z,15.98
2017-08-07T04:27:17.635Z,16.01
2017-08-07T04:27:58.232Z,15.98
2017-08-07T04:28:38.774Z,16
2017-08-07T04:29:19.368Z,15.95
2017-08-07T04:29:59.947Z,16.09
2017-08-07T04:30:40.522Z,16.16
2017-08-07T04:31:21.119Z,16.29
2017-08-07T04:32:01.689Z,16.46
2017-08-07T04:32:42.256Z,16.47
2017-08-07T04:33:22.848Z,16.58
2017-08-07T04:34:03.421Z,16.58
2017-08-07T04:34:44.004Z,16.68
2017-08-07T04:35:24.648Z,16.69
2017-08-07T04:36:05.209Z,16.72
2017-08-07T04:36:45.818Z,16.71
2017-08-07T04:37:26.405Z,16.79
2017-08-07T04:38:06.996Z,16.78
2017-08-07T04:38:47.585Z,16.96
2017-08-07T04:39:28.161Z,16.93
2017-08-07T04:40:08.721Z,17.01
2017-08-07T04:40:49.302Z,17.04
2017-08-07T04:41:29.927Z,17.04
2017-08-07T04:42:10.533Z,17.04
2017-08-07T04:42:51.122Z,17.2
2017-08-07T04:43:31.724Z,17.16
2017-08-07T04:44:12.336Z,17.11
2017-08-07T04:44:52.920Z,17.22
2017-08-07T04:45:33.522Z,17.24
2017-08-07T04:46:14.099Z,17.24
2017-08-07T04:46:54.663Z,17.31
2017-08-07T04:47:35.284Z,17.39
2017-08-07T04:48:15.879Z,17.51
2017-08-07T04:48:56.496Z,17.51
2017-08-07T04:49:37.080Z,17.54
2017-08-07T04:50:17.691Z,17.64
2017-08-07T04:50:58.252Z,17.68
2017-08-07T04:51:38.829Z,17.6
2017-08-07T04:52:19.406Z,17.63
2017-08-07T04:53:00.005Z,17.76
2017-08-07T04:53:40.574Z,17.78
2017-08-07T04:54:21.160Z,17.76
2017-08-07T04:55:01.793Z,17.79
2017-08-07T04:55:42.441Z,17.85
2017-08-07T04:56:23.026Z,17.85
2017-08-07T04:57:03.630Z,17.87
2017-08-07T04:57:44.270Z,17.95
2017-08-07T04:58:24.828Z,17.92
2017-08-07T04:59:05.419Z,17.98
2017-08-07T04:59:46.001Z,18.04
2017-08-07T05:00:26.609Z,18.07
2017-08-07T05:01:07.252Z,18.04
2017-08-07T05:01:47.820Z,18.11
2017-08-07T05:02:28.393Z,18.15
2017-08-07T05:03:08.990Z,18.15
2017-08-07T05:03:49.553Z,18.18
2017-08-07T05:04:30.178Z,18.19
2017-08-07T05:05:10.756Z,18.13
2017-08-07T05:05:51.340Z,18.18
2017-08-07T05:06:31.918Z,18.1
2017-08-07T05:07:12.486Z,18.08
2017-08-07T05:07:53.081Z,18.08
2017-08-07T05:08:33.651Z,18.03
2017-08-07T05:09:14.236Z,18.01
2017-08-07T05:09:54.843Z,17.95
2017-08-07T05:10:35.416Z,17.92
2017-08-07T05:11:16.004Z,17.94
2017-08-07T05:11:56.592Z,17.94
2017-08-07T05:12:37.187Z,17.95
2017-08-07T05:13:17.773Z,17.95
2017-08-07T05:13:58.346Z,18.03
2017-08-07T05:14:38.948Z,18.01
2017-08-07T05:15:19.534Z,18.1
2017-08-07T05:16:00.110Z,18.1
2017-08-07T05:16:40.689Z,18.23
2017-08-07T05:17:21.309Z,18.23
2017-08-07T05:18:01.879Z,18.19
2017-08-07T05:18:42.462Z,18.26
2017-08-07T05:19:23.046Z,18.31
2017-08-07T05:20:03.646Z,18.18
2017-08-07T05:20:44.246Z,18.23
2017-08-07T05:21:24.850Z,18.23
2017-08-07T05:22:05.416Z,18.25
2017-08-07T05:22:45.995Z,18.35
2017-08-07T05:23:26.666Z,18.34
2017-08-07T05:24:07.223Z,18.29
2017-08-07T05:24:47.798Z,18.28
2017-08-07T05:25:28.370Z,18.26
2017-08-07T05:26:08.944Z,18.28
2017-08-07T05:26:49.550Z,18.29
2017-08-07T05:27:30.114Z,18.26
2017-08-07T05:28:10.705Z,18.23
2017-08-07T05:28:51.291Z,18.23
2017-08-07T05:29:31.969Z,18.29
2017-08-07T05:30:12.536Z,18.25
2017-08-07T05:30:53.126Z,18.29
2017-08-07T05:31:33.761Z,18.35
2017-08-07T05:32:14.339Z,18.38
2017-08-07T05:32:54.930Z,18.34
2017-08-07T05:33:35.498Z,18.44
2017-08-07T05:34:16.082Z,18.49
2017-08-07T05:34:56.721Z,18.4
2017-08-07T05:35:39.653Z,18.44
2017-08-07T05:36:25.873Z,18.41
2017-08-07T05:37:12.864Z,18.41
2017-08-07T05:37:59.292Z,18.5
2017-08-07T05:38:41.065Z,18.45
2017-08-07T05:39:21.639Z,18.45
2017-08-07T05:40:02.220Z,18.41
2017-08-07T05:40:42.797Z,18.44
2017-08-07T05:41:23.388Z,18.41
2017-08-07T05:42:03.945Z,18.44
2017-08-07T05:42:44.516Z,18.44
2017-08-07T05:43:25.093Z,18.49
2017-08-07T05:44:05.680Z,18.5
2017-08-07T05:44:46.267Z,18.52
2017-08-07T05:45:26.846Z,18.58
2017-08-07T05:46:07.471Z,18.66
2017-08-07T05:46:48.048Z,18.77
2017-08-07T05:47:28.620Z,18.73
2017-08-07T05:48:09.192Z,18.86
2017-08-07T05:48:49.769Z,18.89
2017-08-07T05:49:30.351Z,18.89
2017-08-07T05:50:10.939Z,18.92
2017-08-07T05:50:51.526Z,19.09
2017-08-07T05:51:32.109Z,19.08
2017-08-07T05:52:12.715Z,19.16
2017-08-07T05:52:53.304Z,19.24
2017-08-07T05:53:33.894Z,19.37
2017-08-07T05:54:14.484Z,19.44
2017-08-07T05:54:55.057Z,19.62
2017-08-07T05:55:35.659Z,19.63
2017-08-07T05:56:16.255Z,19.7
2017-08-07T05:56:56.811Z,19.81
2017-08-07T05:57:37.407Z,19.85
2017-08-07T05:58:17.975Z,19.92
2017-08-07T05:58:58.565Z,19.86
2017-08-07T05:59:39.178Z,20
2017-08-07T06:00:19.766Z,20.04
2017-08-07T06:01:00.356Z,20.21
2017-08-07T06:01:40.938Z,20.18
2017-08-07T06:02:21.527Z,20.25
2017-08-07T06:03:02.124Z,20.32
2017-08-07T06:03:42.700Z,20.48
2017-08-07T06:04:23.281Z,20.51
2017-08-07T06:05:03.927Z,20.58
2017-08-07T06:05:44.484Z,20.59
2017-08-07T06:06:25.066Z,20.7
2017-08-07T06:07:05.653Z,20.72
2017-08-07T06:07:46.244Z,20.85
2017-08-07T06:08:26.827Z,20.85
2017-08-07T06:09:07.450Z,20.97
2017-08-07T06:09:48.068Z,21.11
2017-08-07T06:10:28.676Z,21.05
2017-08-07T06:11:09.257Z,21.07
2017-08-07T06:11:49.875Z,21.12
2017-08-07T06:12:30.475Z,21.07
2017-08-07T06:13:11.066Z,21.21
2017-08-07T06:13:51.674Z,21.27
2017-08-07T06:14:32.291Z,21.29
2017-08-07T06:15:12.888Z,21.42
2017-08-07T06:15:53.459Z,21.33
2017-08-07T06:16:34.156Z,21.46
2017-08-07T06:17:14.764Z,21.57
2017-08-07T06:17:55.353Z,21.46
2017-08-07T06:18:35.975Z,21.67
2017-08-07T06:19:16.560Z,21.64
2017-08-07T06:19:57.156Z,21.73
2017-08-07T06:20:37.735Z,21.82
2017-08-07T06:21:18.308Z,21.83
2017-08-07T06:21:58.897Z,21.92
2017-08-07T06:22:39.477Z,21.95
2017-08-07T06:23:20.071Z,22
2017-08-07T06:24:00.741Z,22.08
2017-08-07T06:24:41.327Z,22.04
2017-08-07T06:25:21.924Z,22.17
2017-08-07T06:26:02.513Z,22.22
2017-08-07T06:26:43.114Z,22.26
2017-08-07T06:27:23.698Z,22.29
2017-08-07T06:28:04.312Z,22.45
2017-08-07T06:28:44.910Z,22.54
2017-08-07T06:29:25.515Z,22.59
2017-08-07T06:30:06.138Z,22.59
2017-08-07T06:30:46.738Z,22.7
2017-08-07T06:31:27.321Z,22.75
2017-08-07T06:32:07.912Z,22.78
2017-08-07T06:32:48.487Z,22.78
2017-08-07T06:33:29.078Z,22.94
2017-08-07T06:34:09.663Z,22.88
2017-08-07T06:34:50.247Z,22.98
2017-08-07T06:35:30.825Z,23.06
2017-08-07T06:36:11.403Z,23.09
2017-08-07T06:36:51.980Z,23.2
2017-08-07T06:37:32.565Z,23.37
2017-08-07T06:38:13.157Z,23.39
2017-08-07T06:38:53.752Z,23.41
2017-08-07T06:39:34.334Z,23.44
2017-08-07T06:40:14.917Z,23.47
2017-08-07T06:40:55.502Z,23.61
2017-08-07T06:41:36.121Z,23.59
2017-08-07T06:42:16.707Z,23.66
2017-08-07T06:42:57.288Z,23.77
2017-08-07T06:43:37.902Z,23.78
2017-08-07T06:44:18.481Z,23.93
2017-08-07T06:44:59.083Z,23.96
2017-08-07T06:45:39.678Z,24.01
2017-08-07T06:46:20.248Z,24.01
2017-08-07T06:47:00.824Z,24.11
2017-08-07T06:47:41.425Z,24.06
2017-08-07T06:48:22.033Z,24.13
2017-08-07T06:49:02.622Z,24.17
2017-08-07T06:49:43.217Z,24.18
2017-08-07T06:50:23.785Z,24.21
2017-08-07T06:51:04.393Z,24.24
2017-08-07T06:51:44.984Z,24.32
2017-08-07T06:52:25.567Z,24.32
2017-08-07T06:53:06.167Z,24.3
2017-08-07T06:53:46.767Z,24.39
2017-08-07T06:54:27.356Z,24.4
2017-08-07T06:55:07.960Z,24.45
2017-08-07T06:55:48.658Z,24.45
2017-08-07T06:56:29.295Z,24.39
2017-08-07T06:57:09.837Z,24.45
2017-08-07T06:57:50.433Z,24.53
2017-08-07T06:58:31.067Z,24.63
2017-08-07T06:59:11.687Z,24.65
2017-08-07T06:59:52.274Z,24.69
2017-08-07T07:00:32.882Z,24.68
2017-08-07T07:01:13.455Z,24.74
2017-08-07T07:01:54.038Z,24.74
2017-08-07T07:02:34.653Z,24.76
2017-08-07T07:03:15.245Z,24.76
2017-08-07T07:03:55.849Z,24.8
2017-08-07T07:04:36.448Z,24.85
2017-08-07T07:05:17.032Z,24.93
2017-08-07T07:05:57.622Z,24.99
2017-08-07T07:06:38.222Z,24.98
2017-08-07T07:07:18.811Z,25.07
2017-08-07T07:07:59.398Z,25.04
2017-08-07T07:08:39.983Z,25.16
2017-08-07T07:09:20.563Z,25.16
2017-08-07T07:10:01.194Z,25.21
2017-08-07T07:10:41.763Z,25.18
2017-08-07T07:11:22.346Z,25.13
2017-08-07T07:12:02.936Z,25.16
2017-08-07T07:12:43.524Z,25.14
2017-08-07T07:13:24.142Z,25.11
2017-08-07T07:14:04.726Z,25.18
2017-08-07T07:14:45.328Z,25.16
2017-08-07T07:15:25.926Z,25.26
2017-08-07T07:16:06.550Z,25.23
2017-08-07T07:16:47.169Z,25.32
2017-08-07T07:17:27.774Z,25.41
2017-08-07T07:18:08.367Z,25.36
2017-08-07T07:18:48.959Z,25.41
2017-08-07T07:19:29.541Z,25.46
2017-08-07T07:20:10.144Z,25.46
2017-08-07T07:20:50.727Z,25.46
2017-08-07T07:21:31.301Z,25.54
2017-08-07T07:22:11.877Z,25.47
2017-08-07T07:22:52.459Z,25.48
2017-08-07T07:23:33.067Z,25.54
2017-08-07T07:24:13.637Z,25.48
2017-08-07T07:24:54.240Z,25.48
2017-08-07T07:25:34.823Z,25.4
2017-08-07T07:26:15.416Z,25.47
2017-08-07T07:26:56.010Z,25.41
2017-08-07T07:27:36.577Z,25.5
2017-08-07T07:28:17.153Z,25.51
2017-08-07T07:28:57.760Z,25.55
2017-08-07T07:29:38.346Z,25.51
2017-08-07T07:30:18.983Z,25.6
2017-08-07T07:30:59.567Z,25.6
2017-08-07T07:31:40.174Z,25.65
2017-08-07T07:32:20.771Z,25.68
2017-08-07T07:33:01.372Z,25.69
2017-08-07T07:33:41.954Z,25.72
2017-08-07T07:34:22.541Z,25.75
2017-08-07T07:35:03.125Z,25.73
2017-08-07T07:35:43.690Z,25.81
2017-08-07T07:36:24.303Z,25.75
2017-08-07T07:37:04.881Z,25.78
2017-08-07T07:37:45.467Z,25.85
2017-08-07T07:38:26.071Z,25.81
2017-08-07T07:39:06.655Z,25.84
2017-08-07T07:39:47.246Z,25.95
2017-08-07T07:40:27.837Z,25.88
2017-08-07T07:41:08.426Z,25.93
2017-08-07T07:41:49.047Z,25.81
2017-08-07T07:42:29.629Z,25.88
2017-08-07T07:43:10.219Z,25.83
2017-08-07T07:43:50.797Z,25.84
2017-08-07T07:44:31.379Z,25.9
2017-08-07T07:45:11.974Z,25.91
2017-08-07T07:45:52.590Z,25.93
2017-08-07T07:46:33.184Z,26.05
2017-08-07T07:47:13.769Z,25.98
2017-08-07T07:47:54.364Z,26.05
2017-08-07T07:48:35.063Z,26.07
2017-08-07T07:49:15.756Z,26.09
2017-08-07T07:49:56.350Z,26.15
2017-08-07T07:50:36.941Z,26.18
2017-08-07T07:51:17.544Z,26.22
2017-08-07T07:51:58.154Z,26.22
2017-08-07T07:52:38.732Z,26.09
2017-08-07T07:53:19.325Z,26.16
2017-08-07T07:53:59.915Z,26.26
2017-08-07T07:54:40.503Z,26.23
2017-08-07T07:55:21.103Z,26.26
2017-08-07T07:56:01.685Z,26.23
2017-08-07T07:56:42.261Z,26.29
2017-08-07T07:57:22.855Z,26.33
2017-08-07T07:58:03.429Z,26.31
2017-08-07T07:58:44.028Z,26.31
2017-08-07T07:59:24.620Z,26.25
2017-08-07T08:00:05.201Z,26.26
2017-08-07T08:00:45.847Z,26.28
2017-08-07T08:01:26.443Z,26.19
2017-08-07T08:02:07.058Z,26.22
2017-08-07T08:02:47.633Z,26.23
2017-08-07T08:03:28.218Z,26.28
2017-08-07T08:04:08.807Z,26.22
2017-08-07T08:04:49.453Z,26.21
2017-08-07T08:05:30.063Z,26.16
2017-08-07T08:06:10.652Z,26.23
2017-08-07T08:06:51.281Z,26.19
2017-08-07T08:07:31.887Z,26.19
2017-08-07T08:08:12.470Z,26.19
2017-08-07T08:08:53.049Z,26.21
2017-08-07T08:09:33.643Z,26.22
2017-08-07T08:10:14.252Z,26.23
2017-08-07T08:10:54.860Z,26.22
2017-08-07T08:11:35.444Z,26.13
2017-08-07T08:12:16.036Z,26.15
2017-08-07T08:12:56.847Z,26.15
2017-08-07T08:13:37.790Z,26.22
2017-08-07T08:14:18.445Z,26.19
2017-08-07T08:14:59.048Z,26.13
2017-08-07T08:15:39.643Z,26.15
2017-08-07T08:16:20.389Z,26.1
2017-08-07T08:17:00.986Z,26.1
2017-08-07T08:17:41.603Z,26.1
2017-08-07T08:18:22.280Z,26.18
2017-08-07T08:19:02.901Z,26.16
2017-08-07T08:19:43.493Z,26.19
2017-08-07T08:20:24.085Z,26.13
2017-08-07T08:21:04.656Z,26.16
2017-08-07T08:21:45.264Z,26.21
2017-08-07T08:22:25.866Z,26.16
2017-08-07T08:23:06.493Z,26.18
2017-08-07T08:23:47.079Z,26.1
2017-08-07T08:24:27.674Z,26.18
2017-08-07T08:25:08.251Z,26.05
2017-08-07T08:25:48.841Z,25.98
2017-08-07T08:26:29.427Z,25.99
2017-08-07T08:27:10.006Z,25.91
2017-08-07T08:27:50.658Z,26.06
2017-08-07T08:28:31.226Z,26
2017-08-07T08:29:11.805Z,26.06
2017-08-07T08:29:52.377Z,26.02
2017-08-07T08:30:32.952Z,25.98
2017-08-07T08:31:13.542Z,25.91
2017-08-07T08:31:54.122Z,25.87
2017-08-07T08:32:34.717Z,25.91
2017-08-07T08:33:15.331Z,25.8
2017-08-07T08:33:55.903Z,25.72
2017-08-07T08:34:36.491Z,25.7
2017-08-07T08:35:17.097Z,25.7
2017-08-07T08:35:57.695Z,25.66
2017-08-07T08:36:38.294Z,25.65
2017-08-07T08:37:18.887Z,25.66
2017-08-07T08:37:59.478Z,25.68
2017-08-07T08:38:40.051Z,25.72
2017-08-07T08:39:20.659Z,25.75
2017-08-07T08:40:01.256Z,25.8
2017-08-07T08:40:41.833Z,25.91
2017-08-07T08:41:22.413Z,25.84
2017-08-07T08:42:02.984Z,25.9
2017-08-07T08:42:43.565Z,25.9
2017-08-07T08:43:24.165Z,25.95
2017-08-07T08:44:04.790Z,25.95
2017-08-07T08:44:45.369Z,25.96
2017-08-07T08:45:25.974Z,26